Terminal Aerodrome Forecast
Issued by NWS Louisville, KY

Home | Current Version | Previous Version | Text Only | Print | Product List | Glossary On
Versions: 1 2 3 4 5 6 7 8 9 10 11 12 13 14 15 16 17 18 19 20 21 22 23
000
FTUS43 KLMK 162100 AAA
TAFSDF
TAF AMD
KSDF 162117Z 1621/1724 26015G23KT P6SM OVC015
     FM170000 27010KT P6SM OVC015
     FM170300 27009KT P6SM BKN015
     FM170900 28008KT P6SM SCT015 BKN030
     FM171500 29007KT P6SM SCT030 BKN250=

USA.gov is the U.S. government's official web portal to all federal, state and local government web resources and services.